Time;durP1;ratioP1;P1;durP2;ratioP2;P2;SDS_P1;SDS_P2;PMS_P1;PMS_P2;Temp;Humidity;BMP_temperature;BMP_pressure;BME280_temperature;BME280_humidity;BME280_pressure;Samples;Min_cycle;Max_cycle;Signal;HPM_P1;HPM_P2
2022/12/02 00:00:54;;;;;;;43.08;16.65;;;2.50;99.90;;;;;;4777529;30;20051;-78
2022/12/02 00:03:24;;;;;;;40.35;15.63;;;1.80;99.90;;;;;;4764768;30;20058;-78
2022/12/02 00:05:56;;;;;;;40.83;14.52;;;2.40;99.90;;;;;;4748484;30;20142;-78
2022/12/02 00:08:28;;;;;;;33.97;12.52;;;1.80;99.90;;;;;;4766364;29;20050;-78
2022/12/02 00:10:59;;;;;;;35.77;13.10;;;1.80;99.90;;;;;;4751104;29;20055;-78
2022/12/02 00:13:41;;;;;;;49.35;16.90;;;1.70;99.90;;;;;;4762982;30;20335;-78
2022/12/02 00:16:22;;;;;;;40.58;14.57;;;1.80;99.90;;;;;;4765557;30;20059;-78
2022/12/02 00:18:51;;;;;;;48.92;17.75;;;1.80;99.90;;;;;;4765473;30;20062;-78
2022/12/02 00:21:19;;;;;;;52.35;20.02;;;2.10;99.90;;;;;;4751425;30;20650;-78
2022/12/02 00:23:47;;;;;;;56.88;20.40;;;1.60;99.90;;;;;;4753223;30;20472;-78
2022/12/02 00:26:15;;;;;;;85.18;31.23;;;1.70;99.90;;;;;;4763403;30;20070;-78
2022/12/02 00:28:45;;;;;;;112.78;40.38;;;1.80;99.90;;;;;;4749599;30;20043;-77
2022/12/02 00:31:13;;;;;;;64.90;24.20;;;2.80;99.90;;;;;;4756345;30;20060;-77
2022/12/02 00:33:41;;;;;;;46.85;18.48;;;1.80;99.90;;;;;;4770448;30;20134;-77
2022/12/02 00:36:08;;;;;;;50.00;19.25;;;1.60;99.90;;;;;;4750640;30;20051;-77
2022/12/02 00:38:36;;;;;;;42.83;16.70;;;2.80;99.90;;;;;;4765304;30;20492;-77
2022/12/02 00:41:04;;;;;;;49.72;16.90;;;1.80;99.90;;;;;;4767771;30;20062;-77
2022/12/02 00:46:32;;;;;;;46.13;16.50;;;2.10;99.90;;;;;;4768314;30;20043;-77
2022/12/02 00:49:06;;;;;;;42.53;14.98;;;0.80;99.90;;;;;;4760460;30;20047;-77
2022/12/02 00:51:35;;;;;;;38.30;15.10;;;1.20;99.90;;;;;;4767406;30;20082;-77
2022/12/02 00:54:04;;;;;;;43.25;14.73;;;2.80;99.90;;;;;;4769096;29;20136;-77
2022/12/02 00:56:35;;;;;;;43.00;14.65;;;1.80;99.90;;;;;;4753181;30;20515;-77
2022/12/02 00:59:03;;;;;;;43.25;15.95;;;1.50;99.90;;;;;;4751436;30;20507;-77
2022/12/02 01:01:32;;;;;;;39.55;15.13;;;1.90;99.90;;;;;;4780670;30;20051;-77
2022/12/02 01:03:59;;;;;;;44.40;16.25;;;1.50;99.90;;;;;;4767315;30;20058;-77
2022/12/02 01:06:27;;;;;;;42.47;16.52;;;1.70;99.90;;;;;;4762165;29;20131;-77
2022/12/02 01:08:54;;;;;;;48.78;18.05;;;1.50;99.90;;;;;;4763792;30;20512;-77
2022/12/02 01:11:22;;;;;;;50.08;18.13;;;1.50;99.90;;;;;;4776451;29;20338;-77
2022/12/02 01:13:50;;;;;;;49.08;18.13;;;1.50;99.90;;;;;;4766861;30;20416;-77
2022/12/02 01:16:17;;;;;;;47.97;17.08;;;1.60;99.90;;;;;;4776303;29;20567;-77
2022/12/02 01:18:45;;;;;;;48.38;16.70;;;2.40;99.90;;;;;;4775289;29;20462;-77
2022/12/02 01:21:16;;;;;;;47.42;16.98;;;3.20;99.90;;;;;;4748604;30;20051;-77
2022/12/02 01:23:43;;;;;;;44.55;16.75;;;2.60;99.90;;;;;;4764422;29;20055;-77
2022/12/02 01:26:12;;;;;;;40.70;15.85;;;1.60;99.90;;;;;;4777365;29;20416;-77
2022/12/02 01:28:39;;;;;;;45.35;16.63;;;2.80;99.90;;;;;;4760824;30;20113;-77
2022/12/02 01:31:07;;;;;;;45.58;16.10;;;1.90;99.90;;;;;;4777875;29;20483;-78
2022/12/02 01:33:34;;;;;;;41.95;16.17;;;2.70;99.90;;;;;;4751973;30;20052;-78
2022/12/02 01:36:02;;;;;;;40.65;14.45;;;1.40;99.90;;;;;;4761648;30;20055;-78
2022/12/02 01:38:29;;;;;;;40.35;14.95;;;1.60;99.90;;;;;;4752113;30;20081;-78
2022/12/02 01:40:57;;;;;;;43.35;13.98;;;3.00;99.90;;;;;;4767312;29;20044;-78
2022/12/02 01:43:25;;;;;;;41.58;13.60;;;1.40;99.90;;;;;;4768601;30;20110;-78
2022/12/02 01:45:55;;;;;;;43.67;15.25;;;1.40;99.90;;;;;;4771017;30;20046;-77
2022/12/02 01:48:25;;;;;;;39.72;13.30;;;1.60;99.90;;;;;;4756407;30;20043;-77
2022/12/02 01:50:56;;;;;;;41.28;14.18;;;1.50;99.90;;;;;;4771971;29;20190;-78
2022/12/02 01:53:24;;;;;;;44.15;13.27;;;1.50;99.90;;;;;;4773213;30;20527;-78
2022/12/02 01:55:53;;;;;;;37.30;13.35;;;2.50;99.90;;;;;;4767279;30;20154;-78
2022/12/02 01:58:28;;;;;;;44.28;14.70;;;2.10;99.90;;;;;;4785019;29;20567;-78
2022/12/02 02:00:57;;;;;;;44.97;14.82;;;1.40;99.90;;;;;;4767853;29;20077;-78
2022/12/02 02:03:24;;;;;;;44.97;15.82;;;3.20;99.90;;;;;;4749376;30;22216;-78
2022/12/02 02:05:53;;;;;;;39.80;14.07;;;2.40;99.90;;;;;;4763737;30;20546;-78
2022/12/02 02:08:23;;;;;;;41.65;13.70;;;1.60;99.90;;;;;;4782841;30;20542;-78
2022/12/02 02:10:51;;;;;;;40.80;14.50;;;2.30;99.90;;;;;;4755808;30;20603;-78
2022/12/02 02:13:18;;;;;;;37.08;13.80;;;0.40;99.90;;;;;;4770291;29;20499;-78
2022/12/02 02:15:46;;;;;;;34.92;13.05;;;0.60;99.90;;;;;;4782034;29;20054;-77
2022/12/02 02:18:15;;;;;;;37.40;12.10;;;2.70;99.90;;;;;;4771368;30;20445;-77
2022/12/02 02:20:45;;;;;;;36.50;13.35;;;2.60;99.90;;;;;;4763901;30;20056;-78
2022/12/02 02:23:17;;;;;;;37.20;14.80;;;2.30;99.90;;;;;;4751051;30;20043;-77
2022/12/02 02:25:47;;;;;;;36.75;12.07;;;1.60;99.90;;;;;;4771931;29;20054;-78
2022/12/02 02:28:19;;;;;;;36.70;13.43;;;2.20;99.90;;;;;;4773476;30;20130;-78
2022/12/02 02:30:47;;;;;;;39.05;12.75;;;2.90;99.90;;;;;;4765170;29;20079;-78
2022/12/02 02:33:19;;;;;;;31.70;11.73;;;0.80;99.90;;;;;;4764421;30;20059;-78
2022/12/02 02:35:50;;;;;;;38.58;13.50;;;1.70;99.90;;;;;;4766474;30;20116;-78
2022/12/02 02:38:22;;;;;;;31.98;12.15;;;2.80;99.90;;;;;;4751005;30;20150;-78
2022/12/02 02:40:51;;;;;;;37.88;15.27;;;2.50;99.90;;;;;;4765093;30;20076;-78
2022/12/02 02:43:21;;;;;;;42.60;16.48;;;1.60;99.90;;;;;;4778536;29;20056;-78
2022/12/02 02:45:51;;;;;;;39.22;16.27;;;2.70;99.90;;;;;;4751099;30;20052;-78
2022/12/02 02:48:23;;;;;;;35.85;14.00;;;2.70;99.90;;;;;;4754975;30;20047;-78
2022/12/02 02:50:51;;;;;;;35.55;12.98;;;2.60;99.90;;;;;;4753670;30;20055;-78
2022/12/02 02:53:23;;;;;;;37.17;12.35;;;2.10;99.90;;;;;;4753366;30;20477;-78
2022/12/02 02:55:55;;;;;;;33.17;12.70;;;1.30;99.90;;;;;;4781911;30;20052;-78
2022/12/02 02:58:25;;;;;;;32.33;11.13;;;1.40;99.90;;;;;;4761253;30;20100;-78
2022/12/02 03:01:07;;;;;;;30.88;11.35;;;2.10;99.90;;;;;;4765859;30;20058;-78
2022/12/02 03:03:41;;;;;;;27.98;11.45;;;1.50;99.90;;;;;;4764453;29;20137;-78
2022/12/02 03:06:11;;;;;;;38.53;11.07;;;1.50;99.90;;;;;;4750086;30;20063;-77
2022/12/02 03:08:42;;;;;;;27.17;10.23;;;1.60;99.90;;;;;;4765112;30;20753;-78
2022/12/02 03:11:11;;;;;;;28.88;10.23;;;1.80;99.90;;;;;;4762666;30;20435;-78
2022/12/02 03:13:41;;;;;;;26.08;9.60;;;1.50;99.90;;;;;;4778302;29;20047;-78
2022/12/02 03:16:13;;;;;;;28.98;10.73;;;1.50;99.90;;;;;;4765821;30;20162;-78
2022/12/02 03:18:42;;;;;;;28.63;10.77;;;2.70;99.90;;;;;;4750866;29;21061;-78
2022/12/02 03:21:13;;;;;;;28.23;11.02;;;1.40;99.90;;;;;;4762040;30;20508;-78
2022/12/02 03:23:40;;;;;;;25.52;9.60;;;1.50;99.90;;;;;;4781090;29;20120;-78
2022/12/02 03:26:08;;;;;;;27.40;11.52;;;2.40;99.90;;;;;;4752750;29;20043;-78
2022/12/02 03:28:36;;;;;;;27.05;9.68;;;1.50;99.90;;;;;;4765767;30;20043;-77
2022/12/02 03:31:04;;;;;;;30.60;10.13;;;0.60;99.90;;;;;;4764180;30;20059;-78
2022/12/02 03:33:35;;;;;;;26.08;9.63;;;1.40;99.90;;;;;;4781768;29;20629;-78
2022/12/02 03:36:03;;;;;;;26.33;9.48;;;1.60;99.90;;;;;;4765238;30;20428;-78
2022/12/02 03:38:32;;;;;;;27.48;9.98;;;1.50;99.90;;;;;;4778668;30;20051;-78
2022/12/02 03:41:01;;;;;;;24.45;9.00;;;1.50;99.90;;;;;;4766783;29;20062;-78
2022/12/02 03:43:31;;;;;;;30.27;11.02;;;1.60;99.90;;;;;;4768357;30;20043;-78
2022/12/02 03:46:02;;;;;;;30.52;9.35;;;2.90;99.90;;;;;;4775199;30;20138;-78
2022/12/02 03:48:30;;;;;;;23.50;10.20;;;1.00;99.90;;;;;;4763808;30;20055;-78
2022/12/02 03:50:58;;;;;;;25.13;8.65;;;2.10;99.90;;;;;;4764133;29;20108;-78
2022/12/02 03:53:27;;;;;;;26.67;9.63;;;1.60;99.90;;;;;;4755982;29;20043;-78
2022/12/02 03:55:56;;;;;;;25.33;9.48;;;1.60;99.90;;;;;;4777155;29;20109;-78
2022/12/02 03:58:36;;;;;;;26.02;9.02;;;1.70;99.90;;;;;;4767162;30;20039;-78
2022/12/02 04:01:03;;;;;;;26.90;10.15;;;2.20;99.90;;;;;;4781526;29;20051;-78
2022/12/02 04:03:31;;;;;;;27.35;10.30;;;1.60;99.90;;;;;;4750410;30;20074;-78
2022/12/02 04:05:59;;;;;;;25.10;9.25;;;1.50;99.90;;;;;;4766074;30;20075;-78
2022/12/02 04:08:27;;;;;;;28.20;10.30;;;1.90;99.90;;;;;;4761939;30;20053;-78
2022/12/02 04:10:54;;;;;;;26.98;9.77;;;1.60;99.90;;;;;;4763701;30;20127;-78
2022/12/02 04:13:22;;;;;;;28.52;10.05;;;1.90;99.90;;;;;;4751603;30;20047;-78
2022/12/02 04:15:50;;;;;;;29.52;10.35;;;3.00;99.90;;;;;;4756444;30;20055;-78
2022/12/02 04:18:18;;;;;;;26.90;9.55;;;2.20;99.90;;;;;;4767410;29;20151;-78
2022/12/02 04:20:45;;;;;;;23.42;8.32;;;1.50;99.90;;;;;;4780197;30;20047;-78
2022/12/02 04:23:13;;;;;;;27.83;10.05;;;1.40;99.90;;;;;;4762772;29;20108;-78
2022/12/02 04:25:40;;;;;;;27.55;9.82;;;1.60;99.90;;;;;;4762621;30;20055;-78
2022/12/02 04:28:08;;;;;;;26.45;9.70;;;2.10;99.90;;;;;;4770216;30;20495;-78
2022/12/02 04:30:36;;;;;;;23.77;9.40;;;1.60;99.90;;;;;;4765379;30;20105;-78
2022/12/02 04:33:04;;;;;;;27.23;10.40;;;1.70;99.90;;;;;;4767787;30;20170;-78
2022/12/02 04:35:32;;;;;;;25.60;10.27;;;1.50;99.90;;;;;;4769427;30;20059;-78
2022/12/02 04:37:59;;;;;;;23.50;9.02;;;1.60;99.90;;;;;;4763107;30;20052;-78
2022/12/02 04:40:27;;;;;;;27.55;10.68;;;1.50;99.90;;;;;;4780964;29;20040;-78
2022/12/02 04:42:55;;;;;;;25.65;9.57;;;1.50;99.90;;;;;;4750799;30;20079;-78
2022/12/02 04:45:22;;;;;;;25.30;10.10;;;1.70;99.90;;;;;;4767933;30;20047;-78
2022/12/02 04:47:50;;;;;;;29.58;10.30;;;3.00;99.90;;;;;;4755006;29;20085;-78
2022/12/02 04:50:17;;;;;;;26.13;9.90;;;1.60;99.90;;;;;;4764755;30;20047;-78
2022/12/02 04:52:45;;;;;;;30.98;9.65;;;1.60;99.90;;;;;;4770174;29;20528;-78
2022/12/02 04:55:12;;;;;;;30.00;11.88;;;0.20;99.90;;;;;;4762718;30;20078;-78
2022/12/02 04:57:40;;;;;;;28.85;10.43;;;1.50;99.90;;;;;;4782265;29;20166;-78
2022/12/02 05:00:08;;;;;;;31.95;10.98;;;2.10;99.90;;;;;;4755852;30;20051;-78
2022/12/02 05:02:36;;;;;;;31.00;11.20;;;1.60;99.90;;;;;;4752548;30;20047;-78
2022/12/02 05:05:04;;;;;;;29.10;10.75;;;2.80;99.90;;;;;;4770917;29;20446;-78
2022/12/02 05:07:31;;;;;;;27.15;10.30;;;1.60;99.90;;;;;;4768774;30;20532;-78
2022/12/02 05:09:59;;;;;;;27.88;10.30;;;2.60;99.90;;;;;;4766361;30;20074;-78
2022/12/02 05:12:27;;;;;;;26.17;11.00;;;1.50;99.90;;;;;;4752107;29;20039;-78
2022/12/02 05:14:54;;;;;;;30.10;11.13;;;3.00;99.90;;;;;;4755024;30;20066;-78
2022/12/02 05:17:22;;;;;;;25.17;9.25;;;2.50;99.90;;;;;;4771260;29;20055;-78
2022/12/02 05:19:49;;;;;;;29.85;11.70;;;1.00;99.90;;;;;;4774541;29;20082;-78
2022/12/02 05:22:17;;;;;;;34.30;11.85;;;1.60;99.90;;;;;;4757413;30;20047;-77
2022/12/02 05:24:47;;;;;;;28.00;10.75;;;1.90;99.90;;;;;;4753574;30;20052;-78
2022/12/02 05:27:18;;;;;;;27.90;9.75;;;1.50;99.90;;;;;;4757562;30;20077;-78
2022/12/02 05:29:46;;;;;;;29.75;11.32;;;2.30;99.90;;;;;;4779998;29;20503;-78
2022/12/02 05:32:13;;;;;;;28.13;10.95;;;1.60;99.90;;;;;;4770302;30;20043;-78
2022/12/02 05:34:41;;;;;;;31.85;12.02;;;2.20;99.90;;;;;;4773147;29;20065;-78
2022/12/02 05:37:08;;;;;;;29.15;11.90;;;1.80;99.90;;;;;;4782952;30;20046;-78
2022/12/02 05:39:36;;;;;;;28.95;10.35;;;1.60;99.90;;;;;;4767973;29;20052;-78
2022/12/02 05:42:07;;;;;;;30.73;11.10;;;1.70;99.90;;;;;;4765869;29;20573;-78
2022/12/02 05:44:34;;;;;;;29.67;11.88;;;1.90;99.90;;;;;;4757607;30;20047;-78
2022/12/02 05:47:11;;;;;;;27.60;10.95;;;1.60;99.90;;;;;;4770687;30;20059;-78
2022/12/02 05:49:40;;;;;;;28.10;11.52;;;2.40;99.90;;;;;;4769886;30;20065;-78
2022/12/02 05:52:31;;;;;;;32.57;11.47;;;2.80;99.90;;;;;;4766599;29;20321;-78
2022/12/02 05:55:05;;;;;;;33.13;11.88;;;2.70;99.90;;;;;;4783392;29;20300;-78
2022/12/02 05:57:33;;;;;;;33.15;12.65;;;2.40;99.90;;;;;;4770161;30;20108;-78
2022/12/02 06:00:17;;;;;;;31.67;11.57;;;2.90;99.90;;;;;;4758538;29;20541;-78
2022/12/02 06:02:51;;;;;;;30.60;10.73;;;1.40;99.90;;;;;;4758893;30;20048;-78
2022/12/02 06:05:35;;;;;;;33.50;12.85;;;0.80;99.90;;;;;;4763870;30;20055;-78
2022/12/02 06:08:25;;;;;;;28.98;11.32;;;1.60;99.90;;;;;;4764954;30;20138;-78
2022/12/02 06:10:58;;;;;;;27.05;9.98;;;2.90;99.90;;;;;;4755905;29;20056;-78
2022/12/02 06:13:30;;;;;;;28.90;9.70;;;2.30;99.90;;;;;;4754480;30;20059;-78
2022/12/02 06:16:00;;;;;;;25.48;10.32;;;1.60;99.90;;;;;;4773152;29;20135;-78
2022/12/02 06:18:32;;;;;;;35.05;12.48;;;1.50;99.90;;;;;;4769487;30;20051;-78
2022/12/02 06:21:03;;;;;;;34.13;13.77;;;1.30;99.90;;;;;;4754992;29;20059;-78
2022/12/02 06:23:32;;;;;;;30.30;11.93;;;2.50;99.90;;;;;;4738670;30;20051;-78
2022/12/02 06:26:00;;;;;;;28.95;13.27;;;3.00;99.90;;;;;;4778169;29;20046;-78
2022/12/02 06:28:34;;;;;;;31.15;13.15;;;2.30;99.90;;;;;;4753166;30;20470;-78
2022/12/02 06:31:20;;;;;;;30.52;12.70;;;2.10;99.90;;;;;;4752920;30;20059;-78
2022/12/02 06:33:52;;;;;;;30.95;12.18;;;1.90;99.90;;;;;;4767477;30;20055;-78
2022/12/02 06:36:24;;;;;;;30.05;12.75;;;2.40;99.90;;;;;;4754991;30;20057;-78
2022/12/02 06:38:56;;;;;;;34.35;14.65;;;1.60;99.90;;;;;;4780996;30;20136;-78
2022/12/02 06:41:27;;;;;;;36.75;12.68;;;1.60;99.90;;;;;;4778862;29;20048;-78
2022/12/02 06:46:44;;;;;;;34.40;13.40;;;2.50;99.90;;;;;;4781752;30;20074;-78
2022/12/02 06:49:18;;;;;;;33.97;12.98;;;2.20;99.90;;;;;;4779256;29;20512;-78
2022/12/02 06:51:51;;;;;;;36.15;12.95;;;1.60;99.90;;;;;;4761631;30;20051;-78
2022/12/02 06:54:27;;;;;;;33.83;12.10;;;1.50;99.90;;;;;;4767321;29;20053;-77
2022/12/02 06:57:01;;;;;;;35.53;13.30;;;2.70;99.90;;;;;;4750580;30;20055;-78
2022/12/02 06:59:28;;;;;;;32.78;13.23;;;0.90;99.90;;;;;;4765886;30;20112;-77
2022/12/02 07:02:13;;;;;;;30.63;12.27;;;0.90;99.90;;;;;;4764336;30;20059;-78
2022/12/02 07:04:46;;;;;;;27.20;9.80;;;2.20;99.90;;;;;;4762223;30;20048;-78
2022/12/02 07:07:18;;;;;;;28.35;12.15;;;2.80;99.90;;;;;;4766137;30;20040;-78
2022/12/02 08:19:24;;;;;;;25.67;10.55;;;2.60;99.90;;;;;;4761300;30;20080;-80
2022/12/02 08:21:52;;;;;;;26.23;9.98;;;2.70;99.90;;;;;;4745337;30;21197;-80
2022/12/02 08:24:19;;;;;;;26.48;9.98;;;2.40;99.90;;;;;;4739371;30;20048;-80
2022/12/02 08:26:51;;;;;;;24.42;9.90;;;2.60;99.90;;;;;;4741061;30;20057;-80
2022/12/02 08:41:46;;;;;;;21.67;8.88;;;2.60;99.90;;;;;;4755771;30;20056;-79
2022/12/02 09:26:29;;;;;;;;;;;2.30;99.90;;;;;;4772316;29;20063;-78
2022/12/02 09:28:58;;;;;;;14.02;5.78;;;3.70;99.90;;;;;;4772732;29;19956;-79
2022/12/02 10:23:58;;;;;;;21.30;7.25;;;3.30;99.90;;;;;;5812595;24;20037;31
2022/12/02 10:36:40;;;;;;;22.02;8.45;;;3.30;99.90;;;;;;1769342;24;20264;-77
2022/12/02 10:53:49;;;;;;;24.60;9.45;;;3.40;99.90;;;;;;5473065;24;3673228;31
2022/12/02 11:52:46;;;;;;;24.65;9.75;;;3.90;99.90;;;;;;5503601;24;20094;-79
2022/12/02 14:33:16;;;;;;;35.10;11.60;;;3.20;99.90;;;;;;5812283;24;20030;31
2022/12/02 14:35:51;;;;;;;39.17;14.27;;;3.20;99.90;;;;;;4741130;30;20056;-79
2022/12/02 15:36:16;;;;;;;39.17;15.25;;;3.00;99.90;;;;;;4885168;24;20058;-79
2022/12/02 15:38:43;;;;;;;40.28;15.05;;;3.00;99.90;;;;;;4770663;30;20059;-79
2022/12/02 15:41:11;;;;;;;32.25;14.43;;;3.00;99.90;;;;;;4770684;30;20058;-79
2022/12/02 15:43:38;;;;;;;44.42;15.13;;;2.40;99.90;;;;;;4780420;29;20479;-79
2022/12/02 15:46:06;;;;;;;44.90;16.27;;;3.00;99.90;;;;;;4768699;30;20051;-78
2022/12/02 15:48:37;;;;;;;37.50;14.25;;;3.00;99.90;;;;;;4749428;29;20043;-79
2022/12/02 15:51:04;;;;;;;39.75;14.98;;;3.00;99.90;;;;;;4764749;29;20056;-79
2022/12/02 15:53:32;;;;;;;53.28;20.48;;;3.00;99.90;;;;;;4763597;30;20111;-76
2022/12/02 15:55:59;;;;;;;51.17;20.90;;;2.90;99.90;;;;;;4762155;29;20055;-76
2022/12/02 15:58:27;;;;;;;42.55;18.20;;;3.00;99.90;;;;;;4751818;30;20071;-76
2022/12/02 16:00:55;;;;;;;40.80;17.55;;;3.00;99.90;;;;;;4764490;30;20051;-76
2022/12/02 16:03:23;;;;;;;49.78;18.92;;;2.20;99.90;;;;;;4783097;29;20047;-76
2022/12/02 16:05:51;;;;;;;44.97;17.27;;;4.20;99.90;;;;;;4778804;29;20040;-76
2022/12/02 16:08:21;;;;;;;50.00;17.95;;;3.00;99.90;;;;;;4751178;29;20055;-76
2022/12/02 16:10:49;;;;;;;42.97;18.05;;;2.90;99.90;;;;;;4785463;29;20066;-76
2022/12/02 16:13:16;;;;;;;45.83;17.40;;;3.00;99.90;;;;;;4766809;30;20063;-76
2022/12/02 16:15:45;;;;;;;42.58;16.67;;;3.00;99.90;;;;;;4774832;29;20059;-76
2022/12/02 16:18:12;;;;;;;43.15;16.58;;;2.90;99.90;;;;;;4768893;30;20046;-76
2022/12/02 16:20:40;;;;;;;52.40;21.38;;;2.90;99.90;;;;;;4755464;30;20051;-76
2022/12/02 16:23:10;;;;;;;46.83;18.40;;;2.80;99.90;;;;;;4752178;30;20108;-76
2022/12/02 16:25:40;;;;;;;46.60;16.27;;;2.70;99.90;;;;;;4772286;30;20536;-76
2022/12/02 16:28:07;;;;;;;35.67;13.88;;;3.40;99.90;;;;;;4749938;30;20089;-76
2022/12/02 16:30:35;;;;;;;40.28;15.82;;;3.30;99.90;;;;;;4748925;30;20056;-76
2022/12/02 16:33:03;;;;;;;41.30;17.30;;;3.10;99.90;;;;;;4776995;29;20056;-76
2022/12/02 16:35:30;;;;;;;43.05;18.50;;;2.40;99.90;;;;;;4759108;30;20075;-76
2022/12/02 16:37:57;;;;;;;51.58;19.92;;;3.00;99.90;;;;;;4766157;30;20051;-76
2022/12/02 16:40:31;;;;;;;;;;;3.70;99.90;;;;;;4778027;30;20054;-75
2022/12/02 16:43:00;;;;;;;35.05;14.70;;;2.90;99.90;;;;;;4772917;29;19975;-75
2022/12/02 16:45:28;;;;;;;42.90;15.32;;;3.60;99.90;;;;;;4778818;29;20044;-75
2022/12/02 16:47:56;;;;;;;40.97;17.02;;;3.10;99.90;;;;;;4772538;30;20051;-75
2022/12/02 16:50:25;;;;;;;50.85;22.35;;;3.50;99.90;;;;;;4773537;30;20070;-76
2022/12/02 16:52:52;;;;;;;53.58;24.20;;;4.20;99.90;;;;;;4776109;29;20064;-76
2022/12/02 16:55:22;;;;;;;48.75;19.50;;;3.70;99.90;;;;;;4776748;29;20048;-75
2022/12/02 16:57:50;;;;;;;55.05;22.67;;;2.80;99.90;;;;;;4766875;30;20059;-75
2022/12/02 17:00:18;;;;;;;72.63;27.25;;;2.80;99.90;;;;;;4780536;29;20062;-76
2022/12/02 17:02:45;;;;;;;72.18;25.10;;;1.70;99.90;;;;;;4781627;29;20154;-76
2022/12/02 17:05:12;;;;;;;62.17;22.88;;;4.20;99.90;;;;;;4766947;30;20047;-76
2022/12/02 17:07:40;;;;;;;72.93;28.05;;;2.80;99.90;;;;;;4793699;29;20043;-76
2022/12/02 17:10:08;;;;;;;68.95;26.63;;;2.80;99.90;;;;;;4771223;30;20420;-76
2022/12/02 17:12:39;;;;;;;61.90;25.15;;;2.10;99.90;;;;;;4779728;30;20068;-76
2022/12/02 17:15:08;;;;;;;58.55;27.15;;;2.90;99.90;;;;;;4783453;30;20051;-76
2022/12/02 17:17:36;;;;;;;51.92;23.15;;;2.90;99.90;;;;;;4765330;30;20121;-76
2022/12/02 17:20:13;;;;;;;52.55;24.30;;;2.10;99.90;;;;;;4782425;30;20051;-76
2022/12/02 17:22:44;;;;;;;56.17;24.98;;;2.70;99.90;;;;;;4787229;29;20407;-76
2022/12/02 17:25:14;;;;;;;56.45;25.17;;;3.80;99.90;;;;;;4765022;30;20585;-76
2022/12/02 17:27:41;;;;;;;61.65;25.70;;;2.80;99.90;;;;;;4783938;30;20539;-76
2022/12/02 17:30:13;;;;;;;68.78;28.70;;;4.20;99.90;;;;;;4784264;30;20118;-76
2022/12/02 17:32:41;;;;;;;74.93;28.13;;;2.80;99.90;;;;;;4768133;30;20044;-76
2022/12/02 17:35:09;;;;;;;68.30;27.13;;;2.90;99.90;;;;;;4783166;29;20063;-76
2022/12/02 17:37:36;;;;;;;65.95;24.48;;;2.80;99.90;;;;;;4759811;30;20048;-76
2022/12/02 17:40:04;;;;;;;64.13;25.63;;;3.50;99.90;;;;;;4768261;30;20047;-76
2022/12/02 17:42:32;;;;;;;69.18;27.02;;;1.80;99.90;;;;;;4770006;30;20134;-76
2022/12/02 17:45:00;;;;;;;68.18;28.10;;;2.90;99.90;;;;;;4765432;30;20055;-76
2022/12/02 17:47:28;;;;;;;64.88;26.58;;;2.80;99.90;;;;;;4750618;30;20039;-76
2022/12/02 17:49:58;;;;;;;61.05;24.60;;;2.90;99.90;;;;;;4754321;30;20122;-76
2022/12/02 17:52:26;;;;;;;58.15;24.52;;;2.90;99.90;;;;;;4757965;30;20557;-76
2022/12/02 17:54:54;;;;;;;75.97;31.52;;;2.90;99.90;;;;;;4756383;30;20470;-76
2022/12/02 17:57:22;;;;;;;68.78;29.23;;;1.50;99.90;;;;;;4764666;30;20075;-76
2022/12/02 17:59:50;;;;;;;64.55;26.50;;;2.80;99.90;;;;;;4751071;30;20058;-76
2022/12/02 18:02:19;;;;;;;55.63;23.45;;;2.80;99.90;;;;;;4766557;30;20059;-76
2022/12/02 18:04:47;;;;;;;51.25;21.33;;;2.90;99.90;;;;;;4767870;29;20071;-76
2022/12/02 18:07:15;;;;;;;53.63;21.48;;;2.80;99.90;;;;;;4751475;30;20411;-76
2022/12/02 18:09:42;;;;;;;53.45;20.98;;;2.90;99.90;;;;;;4771002;30;20131;-76
2022/12/02 18:12:10;;;;;;;55.28;24.35;;;2.80;99.90;;;;;;4771275;30;20063;-76
2022/12/02 18:14:37;;;;;;;49.42;20.60;;;2.90;99.90;;;;;;4752880;30;20089;-76
2022/12/02 18:17:05;;;;;;;51.92;22.10;;;3.80;99.90;;;;;;4764356;30;20052;-76
2022/12/02 18:19:33;;;;;;;56.72;22.95;;;2.80;99.90;;;;;;4766613;30;20055;-76
2022/12/02 18:22:01;;;;;;;55.28;22.08;;;2.60;99.90;;;;;;4762172;30;20051;-76
2022/12/02 18:24:29;;;;;;;44.03;19.73;;;2.90;99.90;;;;;;4769967;29;20297;-76
2022/12/02 18:26:57;;;;;;;65.35;24.55;;;2.90;99.90;;;;;;4753960;30;20132;-76
2022/12/02 18:29:25;;;;;;;74.90;28.35;;;4.10;99.90;;;;;;4767677;30;20048;-76
2022/12/02 18:31:53;;;;;;;102.72;37.53;;;3.70;99.90;;;;;;4780265;29;20062;-76
2022/12/02 18:34:20;;;;;;;75.35;28.17;;;2.90;99.90;;;;;;4757692;29;20055;-76
2022/12/02 18:36:48;;;;;;;68.53;27.48;;;2.70;99.90;;;;;;4768187;30;20081;-76
2022/12/02 18:39:16;;;;;;;61.97;22.77;;;2.80;99.90;;;;;;4772011;30;20062;-76
2022/12/02 18:41:44;;;;;;;51.40;20.35;;;2.90;99.90;;;;;;4783073;29;20062;-76
2022/12/02 18:44:15;;;;;;;51.90;19.88;;;2.70;99.90;;;;;;4769569;30;20063;-76
2022/12/02 18:46:42;;;;;;;53.65;20.40;;;4.40;99.90;;;;;;4770801;30;20067;-76
2022/12/02 18:49:10;;;;;;;42.90;17.27;;;2.80;99.90;;;;;;4783566;29;20067;-76
2022/12/02 18:51:38;;;;;;;49.85;18.33;;;4.10;99.90;;;;;;4782667;29;20134;-76
2022/12/02 18:54:06;;;;;;;41.28;16.23;;;4.20;99.90;;;;;;4781126;29;20463;-76
2022/12/02 18:56:35;;;;;;;45.72;18.67;;;2.90;99.90;;;;;;4782637;29;20052;-76
2022/12/02 18:59:03;;;;;;;42.28;15.77;;;3.80;99.90;;;;;;4779213;30;20051;-76
2022/12/02 19:01:39;;;;;;;37.53;15.50;;;2.60;99.90;;;;;;4780061;30;20407;-76
2022/12/02 19:04:08;;;;;;;42.25;15.35;;;3.20;99.90;;;;;;4772709;30;20083;-76
2022/12/02 19:06:36;;;;;;;40.17;14.43;;;2.80;99.90;;;;;;4774127;30;20043;-76
2022/12/02 19:09:03;;;;;;;41.72;14.13;;;3.30;99.90;;;;;;4790186;29;20075;-76
2022/12/02 19:11:32;;;;;;;55.75;19.80;;;3.60;99.90;;;;;;4771530;30;20112;-76
2022/12/02 19:14:00;;;;;;;43.95;14.63;;;4.10;99.90;;;;;;4789788;29;20059;-76
2022/12/02 19:16:30;;;;;;;36.38;13.07;;;2.90;99.90;;;;;;4778307;29;20051;-76
2022/12/02 19:18:58;;;;;;;37.65;14.88;;;2.80;99.90;;;;;;4765195;29;20967;-76
2022/12/02 19:21:28;;;;;;;66.40;26.30;;;2.80;99.90;;;;;;4781339;29;20055;-76
2022/12/02 19:23:55;;;;;;;52.88;21.77;;;2.70;99.90;;;;;;4781097;29;20044;-76
2022/12/02 19:26:24;;;;;;;41.13;16.05;;;2.80;99.90;;;;;;4771867;30;20470;-76
2022/12/02 19:28:52;;;;;;;52.30;16.83;;;2.80;99.90;;;;;;4786727;29;20043;-76
2022/12/02 19:31:20;;;;;;;40.63;15.85;;;2.80;99.90;;;;;;4785085;29;20043;-76
2022/12/02 19:33:48;;;;;;;43.83;15.52;;;2.70;99.90;;;;;;4762871;30;20051;-76
2022/12/02 19:36:16;;;;;;;40.25;14.98;;;2.80;99.90;;;;;;4770428;29;20500;-76
2022/12/02 19:38:43;;;;;;;43.03;16.10;;;3.20;99.90;;;;;;4784984;29;20081;-76
2022/12/02 19:41:12;;;;;;;40.20;15.07;;;2.90;99.90;;;;;;4775861;30;20086;-76
2022/12/02 19:43:39;;;;;;;38.78;13.80;;;4.20;99.90;;;;;;4768557;30;20488;-76
2022/12/02 19:46:07;;;;;;;39.03;14.98;;;2.70;99.90;;;;;;4779672;30;20047;-76
2022/12/02 19:48:35;;;;;;;34.92;12.32;;;3.50;99.90;;;;;;4779220;29;20048;-76
2022/12/02 19:51:05;;;;;;;41.03;14.85;;;2.70;99.90;;;;;;4763308;30;20067;-78
2022/12/02 19:53:33;;;;;;;42.53;16.33;;;2.80;99.90;;;;;;4766398;30;20065;-77
2022/12/02 19:56:02;;;;;;;36.28;13.15;;;2.70;99.90;;;;;;4779509;29;20052;-77
2022/12/02 19:58:30;;;;;;;38.20;13.20;;;3.00;99.90;;;;;;4765891;30;20054;-77
2022/12/02 20:00:58;;;;;;;37.33;13.73;;;2.80;99.90;;;;;;4782872;29;20116;-77
2022/12/02 20:03:26;;;;;;;40.60;14.13;;;2.80;99.90;;;;;;4784094;29;20115;-77
2022/12/02 20:05:53;;;;;;;34.10;14.02;;;2.30;99.90;;;;;;4772313;30;20032;-77
2022/12/02 20:08:21;;;;;;;37.88;14.60;;;2.70;99.90;;;;;;4782246;29;20087;-77
2022/12/02 20:10:50;;;;;;;34.55;13.15;;;2.70;99.90;;;;;;4780552;29;20488;-77
2022/12/02 20:13:18;;;;;;;33.17;12.40;;;3.70;99.90;;;;;;4766363;30;20047;-77
2022/12/02 20:15:46;;;;;;;33.38;12.20;;;2.90;99.90;;;;;;4778553;30;20416;-77
2022/12/02 20:18:23;;;;;;;32.78;12.55;;;2.80;99.90;;;;;;4771304;30;20087;-77
2022/12/02 20:20:57;;;;;;;36.05;13.27;;;2.60;99.90;;;;;;4769460;30;20082;-77
2022/12/02 20:23:25;;;;;;;30.10;12.02;;;2.90;99.90;;;;;;4777564;29;20480;-76
2022/12/02 20:25:53;;;;;;;35.53;12.02;;;2.80;99.90;;;;;;4782068;29;20059;-76
2022/12/02 20:28:21;;;;;;;29.33;11.90;;;2.80;99.90;;;;;;4768276;30;20052;-77
2022/12/02 20:30:53;;;;;;;34.80;13.95;;;3.00;99.90;;;;;;4768299;30;20062;-77
2022/12/02 20:33:22;;;;;;;39.65;14.27;;;2.50;99.90;;;;;;4779595;30;20036;-76
2022/12/02 20:35:53;;;;;;;30.33;12.82;;;3.00;99.90;;;;;;4743771;30;20162;-77
2022/12/02 20:38:21;;;;;;;32.45;12.80;;;2.70;99.90;;;;;;4753601;30;20035;-77
2022/12/02 20:40:49;;;;;;;37.28;13.90;;;2.80;99.90;;;;;;4745567;30;20055;-77
2022/12/02 20:43:19;;;;;;;31.83;12.65;;;3.40;99.90;;;;;;4743921;30;20052;-77
2022/12/02 20:45:47;;;;;;;120.18;36.33;;;2.20;99.90;;;;;;4733119;30;20084;-76
2022/12/02 20:48:15;;;;;;;113.80;35.80;;;2.60;99.90;;;;;;4748393;30;20102;-77